• Join FlightAware (Why Join?)
  • Login
  • US Flag 
03:07PM EDT


 

Airport Tracker/Info


-or-


 

Live Flight TrackerFlight Track Log ✈ TRS1775 ✈ 03-May-2012 ✈ KSFO - KMKE

Flight Track Log - Related Links

Times and Time Zones

All times are in EDT time to prevent confusion due to time zone crossing. See the TRS1775 flight status page for this flight to view local times or setup timezone preferences in your user account.

Time Position Orientation Groundspeed Altitude Reporting Facility
EDT Latitude Longitude Course Direction KTS MPH feet Rate Location/Type
02:57AM 37.6506 -122.3533 26° Northeast 171 197 1,000  Level Oakland Center
02:58AM 37.6967 -122.3253 341° North 184 212 2,800 2,520 Climbing Oakland Center
02:59AM 37.7672 -122.3556 351° North 224 258 6,100 3,600 Climbing Oakland Center
03:00AM 37.8422 -122.3700 68° East 235 270 10,000 2,700 Climbing Oakland Center
03:01AM 37.8769 -122.2628 78° East 236 272 11,500 2,100 Climbing Oakland Center
03:02AM 37.8992 -122.1289 79° East 302 348 14,200 2,700 Climbing Oakland Center
03:03AM 37.9214 -121.9819 81° East 375 432 16,900 2,400 Climbing Oakland Center
03:04AM 37.9414 -121.8267 78° East 419 482 19,000 2,100 Climbing Oakland Center
03:05AM 37.9672 -121.6664 79° East 445 512 21,100 1,800 Climbing Oakland Center
03:06AM 37.9933 -121.4981 78° East 470 541 22,700 1,560 Climbing Oakland Center
03:07AM 38.0231 -121.3189 70° East 496 571 24,300 1,620 Climbing Oakland Center
03:08AM 38.0756 -121.1369 69° East 513 590 26,000 1,620 Climbing Oakland Center
03:09AM 38.1300 -120.9550 70° East 538 619 27,600 1,680 Climbing Oakland Center
03:10AM 38.1842 -120.7700 69° East 550 633 29,400 1,620 Climbing Oakland Center
03:11AM 38.2400 -120.5847 69° East 556 640 30,900 1,560 Climbing Oakland Center
03:12AM 38.2953 -120.3967 70° East 556 640 32,600 1,740 Climbing Oakland Center
03:13AM 38.3486 -120.2133 69° East 556 640 34,400 1,800 Climbing Oakland Center
03:14AM 38.4014 -120.0328 70° East 551 634 36,200 1,260 Climbing Oakland Center
03:15AM 38.4522 -119.8544 72° East 540 621 37,000 360 Climbing Oakland Center
03:16AM 38.4903 -119.7025 69° East 521 600 37,000  Level Oakland Center
03:17AM 38.5422 -119.5264 70° East 516 594 37,000  Level Oakland Center
03:18AM 38.5903 -119.3528 70° East 516 594 37,000  Level Oakland Center
03:19AM 38.6397 -119.1761 70° East 516 594 37,000  Level Oakland Center
03:21AM 38.7444 -118.7961 70° East 526 605 37,000  Level Salt Lake Center
03:22AM 38.7928 -118.6206 71° East 526 605 37,000  Level Salt Lake Center
03:23AM 38.8369 -118.4514 71° East 522 601 37,000  Level Oakland Center
03:27AM 39.0253 -117.7428 72° East 520 598 37,000  Level Salt Lake Center
03:28AM 39.0700 -117.5675 71° East 518 596 37,000  Level Salt Lake Center
03:29AM 39.1203 -117.3744 72° East 518 596 37,000  Level Salt Lake Center
03:30AM 39.1633 -117.2067 72° East 517 595 37,000  Level Salt Lake Center
03:33AM 39.2975 -116.6733 72° East 518 596 37,000  Level Salt Lake Center
03:34AM 39.3394 -116.5050 72° East 517 595 37,000  Level Salt Lake Center
03:35AM 39.3808 -116.3361 72° East 518 596 37,000  Level Salt Lake Center
03:36AM 39.4292 -116.1400 73° East 514 592 37,000  Level Salt Lake Center
03:37AM 39.4686 -115.9725 72° East 512 589 37,000  Level Salt Lake Center
03:38AM 39.5092 -115.8056 73° East 511 588 37,000  Level Salt Lake Center
03:39AM 39.5561 -115.6089 73° East 512 589 37,000  Level Salt Lake Center
03:40AM 39.5961 -115.4400 72° East 513 590 37,000  Level Salt Lake Center
03:41AM 39.6383 -115.2692 73° East 518 596 37,000  Level Salt Lake Center
03:42AM 39.6850 -115.0708 73° East 517 595 37,000  Level Salt Lake Center
03:43AM 39.7244 -114.9019 74° East 514 592 37,000  Level Salt Lake Center
03:45AM 39.7650 -114.7228 73° East 511 588 37,000  Level Salt Lake Center
03:46AM 39.8067 -114.5442 74° East 511 588 37,000  Level Salt Lake Center
03:47AM 39.8456 -114.3689 73° East 505 581 37,000  Level Salt Lake Center
03:48AM 39.8856 -114.1933 74° East 503 579 37,000  Level Salt Lake Center
03:49AM 39.9253 -114.0156 74° East 505 581 37,000  Level Salt Lake Center
03:50AM 39.9642 -113.8381 74° East 505 581 37,000  Level Salt Lake Center
03:51AM 40.0033 -113.6597 74° East 507 583 37,000 540 Level Salt Lake Center
03:52AM 40.0428 -113.4792 74° East 512 589 38,200 960 Climbing Salt Lake Center
03:53AM 40.0806 -113.3008 74° East 508 585 39,000 360 Climbing Salt Lake Center
03:54AM 40.1194 -113.1206 74° East 510 587 39,000  Level Salt Lake Center
03:55AM 40.1589 -112.9397 74° East 514 592 39,000  Level Salt Lake Center
03:56AM 40.1981 -112.7567 74° East 518 596 39,000  Level Salt Lake Center
03:57AM 40.2369 -112.5736 75° East 520 598 39,000  Level Salt Lake Center
03:58AM 40.2742 -112.3900 75° East 519 597 39,000  Level Salt Lake Center
03:59AM 40.3117 -112.2050 75° East 522 601 39,000  Level Salt Lake Center
04:00AM 40.3483 -112.0211 75° East 520 598 39,000  Level Salt Lake Center
04:01AM 40.3853 -111.8383 75° East 519 597 39,000  Level Salt Lake Center
04:02AM 40.4231 -111.6558 76° East 518 596 39,000  Level Salt Lake Center
04:03AM 40.4586 -111.4736 75° East 516 594 39,000  Level Salt Lake Center
04:04AM 40.4942 -111.2933 75° East 511 588 39,000  Level Salt Lake Center
04:05AM 40.5292 -111.1156 76° East 505 581 39,000  Level Salt Lake Center
04:06AM 40.5636 -110.9342 76° East 507 583 39,000  Level Salt Lake Center
04:07AM 40.5981 -110.7542 76° East 506 582 39,000  Level Salt Lake Center
04:08AM 40.6292 -110.5869 76° East 505 581 39,000  Level Salt Lake Center
04:09AM 40.6675 -110.3856 76° East 508 585 39,000  Level Salt Lake Center
04:10AM 40.7000 -110.2083 77° East 508 585 39,000  Level Salt Lake Center
04:11AM 40.7311 -110.0342 76° East 509 586 39,000  Level Salt Lake Center
04:12AM 40.7628 -109.8619 76° East 506 582 39,000  Level Salt Lake Center
04:13AM 40.7994 -109.6614 77° East 504 580 39,000  Level Salt Lake Center
04:14AM 40.8303 -109.4900 77° East 502 578 39,000  Level Salt Lake Center
04:15AM 40.8639 -109.3031 77° East 496 571 39,000  Level Salt Lake Center
04:16AM 40.8925 -109.1336 77° East 496 571 39,000  Level Salt Lake Center
04:17AM 40.9214 -108.9653 77° East 496 571 39,000  Level Salt Lake Center
04:18AM 40.9561 -108.7686 77° East 496 571 39,000  Level Salt Lake Center
04:19AM 40.9861 -108.5956 78° East 503 579 39,000  Level Salt Lake Center
04:20AM 41.0142 -108.4225 77° East 505 581 39,000  Level Salt Lake Center
04:21AM 41.0481 -108.2225 77° East 503 579 39,000  Level Salt Lake Center
04:22AM 41.0767 -108.0506 78° East 500 575 39,000  Level Salt Lake Center
04:23AM 41.1047 -107.8781 78° East 501 577 39,000  Level Salt Lake Center
04:23AM 41.1189 -107.7897 78° East 502 578 39,000  Level Denver Center
04:24AM 41.1514 -107.5892 78° East 501 577 39,000  Level Denver Center
04:25AM 41.1781 -107.4183 78° East 497 572 39,000  Level Denver Center
04:26AM 41.2047 -107.2469 78° East 496 571 39,000  Level Denver Center
04:27AM 41.2361 -107.0478 78° East 494 568 39,000  Level Denver Center
04:28AM 41.2633 -106.8772 79° East 494 568 39,000  Level Denver Center
04:29AM 41.2883 -106.7067 79° East 493 567 39,000  Level Denver Center
04:30AM 41.3183 -106.5061 78° East 495 570 39,000  Level Denver Center
04:31AM 41.3433 -106.3431 79° East 494 568 39,000  Level Denver Center
04:32AM 41.3725 -106.1436 79° East 493 567 39,000  Level Denver Center
04:33AM 41.3969 -105.9719 79° East 493 567 39,000  Level Denver Center
04:34AM 41.4222 -105.8014 79° East 492 566 39,000  Level Denver Center
04:35AM 41.4464 -105.6278 79° East 496 571 39,000  Level Denver Center
04:36AM 41.4750 -105.4239 80° East 500 575 39,000  Level Denver Center
04:37AM 41.4989 -105.2497 80° East 500 575 39,000  Level Denver Center
04:38AM 41.5225 -105.0761 79° East 500 575 39,000  Level Denver Center
04:39AM 41.5508 -104.8756 80° East 497 572 39,000  Level Denver Center
04:40AM 41.5733 -104.7019 80° East 497 572 39,000  Level Denver Center
04:41AM 41.5958 -104.5308 80° East 494 568 39,000  Level Denver Center
04:42AM 41.6219 -104.3322 80° East 490 564 39,000  Level Denver Center
04:43AM 41.6439 -104.1631 80° East 487 560 39,000  Level Denver Center
04:44AM 41.6653 -103.9925 81° East 487 560 39,000  Level Denver Center
04:45AM 41.6894 -103.7944 81° East 486 559 39,000  Level Denver Center
04:46AM 41.7106 -103.6239 80° East 486 559 39,000  Level Denver Center
04:47AM 41.7319 -103.4525 81° East 488 562 39,000  Level Denver Center
04:48AM 41.7561 -103.2536 81° East 487 560 39,000  Level Denver Center
04:49AM 41.7756 -103.0828 81° East 486 559 39,000  Level Denver Center
04:50AM 41.7958 -102.9111 81° East 488 562 39,000  Level Denver Center
04:51AM 41.8192 -102.7103 81° East 489 563 39,000  Level Denver Center
04:52AM 41.8392 -102.5372 81° East 491 565 39,000  Level Denver Center
04:53AM 41.8589 -102.3631 82° East 493 567 39,000  Level Denver Center
04:54AM 41.8783 -102.1867 82° East 489 563 39,000  Level Denver Center
04:55AM 41.8997 -101.9864 82° East 486 559 39,000  Level Denver Center
04:56AM 41.9183 -101.8136 82° East 488 562 39,000  Level Denver Center
04:57AM 41.9372 -101.6411 82° East 487 560 39,000  Level Denver Center
04:58AM 41.9556 -101.4692 82° East 486 559 39,000  Level Denver Center
05:00AM 41.9756 -101.2683 82° East 485 558 39,000  Level Denver Center
05:01AM 41.9928 -101.0964 82° East 484 557 39,000  Level Denver Center
05:02AM 42.0100 -100.9236 82° East 485 558 39,000  Level Denver Center
05:03AM 42.0269 -100.7503 82° East 487 560 39,000  Level Denver Center
05:04AM 42.0547 -100.4631 83° East 488 562 39,000  Level Denver Center
05:05AM 42.0736 -100.2653 82° East 483 556 39,000  Level Denver Center
05:06AM 42.0911 -100.0900 82° East 483 556 39,000  Level Denver Center
05:07AM 42.1075 -99.9314 84° East 483 556 39,000  Level Denver Center
05:08AM 42.1222 -99.7536 84° East 476 548 39,000  Level Denver Center
05:09AM 42.1378 -99.5556 83° East 482 555 39,000  Level Denver Center
05:10AM 42.1542 -99.3772 83° East 482 555 39,000  Level Denver Center
05:11AM 42.1692 -99.2158 84° East 482 555 39,000  Level Denver Center
05:12AM 42.1831 -99.0403 84° East 482 555 39,000  Level Denver Center
05:13AM 42.1961 -98.8564 83° East 482 555 39,000  Level Denver Center
05:14AM 42.2186 -98.6172 85° East 476 548 39,000  Level Minneapolis Center
05:15AM 42.2311 -98.4389 84° East 476 548 39,000  Level Minneapolis Center
05:16AM 42.2453 -98.2636 84° East 476 548 39,000  Level Minneapolis Center
05:17AM 42.2589 -98.0881 85° East 476 548 39,000  Level Minneapolis Center
05:18AM 42.2703 -97.9178 86° East 471 542 39,000  Level Minneapolis Center
05:19AM 42.2794 -97.7361 85° East 471 542 39,000  Level Minneapolis Center
05:20AM 42.2894 -97.5856 84° East 466 536 39,000  Level Minneapolis Center
05:21AM 42.3022 -97.4097 85° East 466 536 39,000  Level Minneapolis Center
05:22AM 42.3125 -97.2364 85° East 460 529 39,000  Level Minneapolis Center
05:23AM 42.3244 -97.0658 84° East 460 529 39,000  Level Minneapolis Center
05:24AM 42.3386 -96.8842 85° East 460 529 39,000  Level Minneapolis Center
05:25AM 42.3500 -96.7164 86° East 454 522 39,000  Level Minneapolis Center
05:26AM 42.3594 -96.5372 85° East 466 536 39,000  Level Minneapolis Center
05:27AM 42.3706 -96.3583 86° East 466 536 39,000  Level Minneapolis Center
05:28AM 42.3792 -96.1875 85° East 466 536 39,000  Level Minneapolis Center
05:29AM 42.3897 -96.0081 86° East 466 536 39,000  Level Minneapolis Center
05:30AM 42.3978 -95.8314 85° East 466 536 39,000  Level Minneapolis Center
05:31AM 42.4097 -95.6606 87° East 466 536 39,000  Level Minneapolis Center
05:32AM 42.4172 -95.4839 86° East 466 536 39,000  Level Minneapolis Center
05:33AM 42.4267 -95.3100 86° East 461 531 39,000  Level Minneapolis Center
05:34AM 42.4356 -95.1361 87° East 461 531 39,000  Level Minneapolis Center
05:35AM 42.4425 -94.9592 87° East 461 531 39,000  Level Minneapolis Center
05:36AM 42.4489 -94.7850 86° East 461 531 39,000  Level Minneapolis Center
05:37AM 42.4569 -94.6108 86° East 461 531 39,000  Level Minneapolis Center
05:38AM 42.4650 -94.4369 86° East 461 531 39,000  Level Minneapolis Center
05:39AM 42.4728 -94.2625 89° East 461 531 39,000  Level Minneapolis Center
05:40AM 42.4739 -94.0686 88° East 461 531 39,000  Level Minneapolis Center
05:41AM 42.4792 -93.8944 86° East 461 531 39,000  Level Minneapolis Center
05:42AM 42.4881 -93.7117 86° East 461 531 39,000  Level Minneapolis Center
05:43AM 42.4967 -93.5317 88° East 466 536 39,000 -120 Level Minneapolis Center
05:46AM 42.5067 -93.0906 87° East 485 558 38,600 -420 Descending Chicago Center
05:47AM 42.5125 -92.9078 88° East 485 558 37,600 -960 Descending Chicago Center
05:48AM 42.5175 -92.7417 88° East 480 552 36,700 -1,020 Descending Chicago Center
05:49AM 42.5225 -92.5617 88° East 480 552 35,600 -2,100 Descending Chicago Center
05:50AM 42.5275 -92.3786 88° East 474 545 32,600 -2,040 Descending Chicago Center
05:51AM 42.5319 -92.2014 89° East 474 545 31,600 -1,020 Descending Chicago Center
05:52AM 42.5342 -92.0239 88° East 479 551 30,600 -1,020 Descending Chicago Center
05:53AM 42.5383 -91.8353 88° East 479 551 29,600 -960 Descending Chicago Center
05:54AM 42.5422 -91.6467 88° East 484 557 28,700 -1,020 Descending Chicago Center
05:55AM 42.5483 -91.4383 89° East 499 574 27,600 -1,140 Descending Chicago Center
05:56AM 42.5497 -91.2467 89° East 499 574 26,500 -1,080 Descending Chicago Center
05:57AM 42.5525 -91.0606 89° East 499 574 25,500 -1,020 Descending Chicago Center
05:58AM 42.5550 -90.8831 90° East 487 560 24,500 -780 Descending Chicago Center
05:59AM 42.5550 -90.7056 86° East 477 549 24,000 -300 Descending Chicago Center
06:00AM 42.5633 -90.5311 84° East 465 535 24,000  Level Chicago Center
06:01AM 42.5775 -90.3564 85° East 459 528 24,000  Level Chicago Center
06:02AM 42.5892 -90.1847 84° East 459 528 24,000  Level Chicago Center
06:03AM 42.6028 -90.0100 86° East 464 534 24,000  Level Chicago Center
06:04AM 42.6119 -89.8381 86° East 459 528 24,000  Level Chicago Center
06:05AM 42.6211 -89.6658 84° East 459 528 24,000  Level Chicago Center
06:06AM 42.6339 -89.4939 85° East 459 528 24,000 -780 Level Chicago Center
06:07AM 42.6444 -89.3189 85° East 459 528 22,500 -1,860 Descending Chicago Center
06:08AM 42.6547 -89.1636 85° East 459 528 20,300 -2,400 Descending Chicago Center
06:09AM 42.6647 -89.0053 86° East 441 507 17,700 -2,580 Descending Chicago Center
06:10AM 42.6725 -88.8500 85° East 414 476 15,200 -2,760 Descending Chicago Center
06:11AM 42.6819 -88.6889 85° East 399 459 12,200 -2,580 Descending Chicago Center
06:12AM 42.6917 -88.5478 86° East 381 438 10,100 -1,140 Descending Chicago Center
06:13AM 42.6989 -88.4147 85° East 357 411 10,000 -660 Descending Chicago Center
06:14AM 42.7064 -88.3017 79° East 318 366 8,800 -1,620 Descending Chicago Center
06:15AM 42.7219 -88.1939 79° East 291 335 6,800 -2,100 Descending Chicago Center
06:16AM 42.7356 -88.0947 81° East 273 314 4,600 -1,920 Descending Chicago Center
06:17AM 42.7469 -88.0014 61° Northeast 273 314 3,000 -840 Descending Chicago Center
06:18AM 42.7772 -87.9269 11° North 244 281 3,000 -480 Level Chicago Center
06:20AM 42.8833 -87.9000 360° North 159 183 1,700 -660 Descending KMKE
06:21AM 42.9167 -87.9000 360° North 123 142 1,100 -600 Descending KMKE